sensor_id;sensor_type;location;lat;lon;timestamp;P1;durP1;ratioP1;P2;durP2;ratioP2
40198;SDS011;25906;43.536;26.068;2023-01-31T00:00:29;27.25;;;11.57;;
40198;SDS011;25906;43.536;26.068;2023-01-31T00:03:14;25.38;;;12.50;;
40198;SDS011;25906;43.536;26.068;2023-01-31T00:08:58;27.52;;;12.80;;
40198;SDS011;25906;43.536;26.068;2023-01-31T00:11:45;30.17;;;12.43;;
40198;SDS011;25906;43.536;26.068;2023-01-31T00:14:30;26.98;;;12.15;;
40198;SDS011;25906;43.536;26.068;2023-01-31T00:17:16;28.15;;;11.93;;
40198;SDS011;25906;43.536;26.068;2023-01-31T00:20:01;28.30;;;12.00;;
40198;SDS011;25906;43.536;26.068;2023-01-31T00:22:47;24.48;;;11.68;;
40198;SDS011;25906;43.536;26.068;2023-01-31T00:28:18;33.83;;;12.43;;
40198;SDS011;25906;43.536;26.068;2023-01-31T00:31:04;31.10;;;12.20;;
40198;SDS011;25906;43.536;26.068;2023-01-31T00:33:50;25.58;;;11.70;;
40198;SDS011;25906;43.536;26.068;2023-01-31T00:36:37;24.58;;;11.10;;
40198;SDS011;25906;43.536;26.068;2023-01-31T00:39:23;25.83;;;11.75;;
40198;SDS011;25906;43.536;26.068;2023-01-31T00:42:08;28.80;;;12.75;;
40198;SDS011;25906;43.536;26.068;2023-01-31T00:44:54;20.60;;;10.95;;
40198;SDS011;25906;43.536;26.068;2023-01-31T00:47:39;26.42;;;11.77;;
40198;SDS011;25906;43.536;26.068;2023-01-31T00:50:25;26.70;;;11.25;;
40198;SDS011;25906;43.536;26.068;2023-01-31T00:53:12;27.75;;;11.82;;
40198;SDS011;25906;43.536;26.068;2023-01-31T00:56:02;28.15;;;10.80;;
40198;SDS011;25906;43.536;26.068;2023-01-31T00:58:50;22.90;;;10.23;;
40198;SDS011;25906;43.536;26.068;2023-01-31T01:01:36;25.92;;;10.77;;
40198;SDS011;25906;43.536;26.068;2023-01-31T01:04:22;24.67;;;11.05;;
40198;SDS011;25906;43.536;26.068;2023-01-31T01:07:07;23.13;;;11.13;;
40198;SDS011;25906;43.536;26.068;2023-01-31T01:12:38;25.30;;;10.00;;
40198;SDS011;25906;43.536;26.068;2023-01-31T01:15:24;22.67;;;11.18;;
40198;SDS011;25906;43.536;26.068;2023-01-31T01:18:09;24.02;;;10.27;;
40198;SDS011;25906;43.536;26.068;2023-01-31T01:23:42;25.58;;;10.55;;
40198;SDS011;25906;43.536;26.068;2023-01-31T01:26:29;24.60;;;10.88;;
40198;SDS011;25906;43.536;26.068;2023-01-31T01:29:16;23.48;;;10.70;;
40198;SDS011;25906;43.536;26.068;2023-01-31T01:32:02;26.00;;;11.18;;
40198;SDS011;25906;43.536;26.068;2023-01-31T01:34:47;22.55;;;10.68;;
40198;SDS011;25906;43.536;26.068;2023-01-31T01:37:33;23.15;;;11.38;;
40198;SDS011;25906;43.536;26.068;2023-01-31T01:40:18;24.27;;;10.85;;
40198;SDS011;25906;43.536;26.068;2023-01-31T01:43:04;27.27;;;12.48;;
40198;SDS011;25906;43.536;26.068;2023-01-31T01:48:36;24.05;;;10.38;;
40198;SDS011;25906;43.536;26.068;2023-01-31T01:51:23;23.98;;;10.60;;
40198;SDS011;25906;43.536;26.068;2023-01-31T01:54:12;26.55;;;11.40;;
40198;SDS011;25906;43.536;26.068;2023-01-31T01:57:05;24.67;;;11.02;;
40198;SDS011;25906;43.536;26.068;2023-01-31T01:59:54;25.35;;;11.57;;
40198;SDS011;25906;43.536;26.068;2023-01-31T02:02:50;24.35;;;10.85;;
40198;SDS011;25906;43.536;26.068;2023-01-31T02:05:43;26.80;;;11.02;;
40198;SDS011;25906;43.536;26.068;2023-01-31T02:08:32;24.77;;;11.02;;
40198;SDS011;25906;43.536;26.068;2023-01-31T02:11:27;23.05;;;10.80;;
40198;SDS011;25906;43.536;26.068;2023-01-31T02:14:14;28.45;;;11.57;;
40198;SDS011;25906;43.536;26.068;2023-01-31T02:17:01;26.70;;;12.10;;
40198;SDS011;25906;43.536;26.068;2023-01-31T02:22:39;27.58;;;11.68;;
40198;SDS011;25906;43.536;26.068;2023-01-31T02:25:46;26.05;;;11.85;;
40198;SDS011;25906;43.536;26.068;2023-01-31T02:44:27;28.52;;;11.38;;
40198;SDS011;25906;43.536;26.068;2023-01-31T02:53:36;26.30;;;12.45;;
40198;SDS011;25906;43.536;26.068;2023-01-31T02:56:30;24.85;;;11.18;;
40198;SDS011;25906;43.536;26.068;2023-01-31T02:59:18;25.30;;;10.73;;
40198;SDS011;25906;43.536;26.068;2023-01-31T03:02:11;26.98;;;11.25;;
40198;SDS011;25906;43.536;26.068;2023-01-31T03:04:57;25.30;;;11.93;;
40198;SDS011;25906;43.536;26.068;2023-01-31T03:07:44;26.23;;;10.82;;
40198;SDS011;25906;43.536;26.068;2023-01-31T03:16:27;24.33;;;11.35;;
40198;SDS011;25906;43.536;26.068;2023-01-31T03:19:37;24.90;;;11.45;;
40198;SDS011;25906;43.536;26.068;2023-01-31T03:22:35;26.40;;;10.82;;
40198;SDS011;25906;43.536;26.068;2023-01-31T03:25:28;31.65;;;13.32;;
40198;SDS011;25906;43.536;26.068;2023-01-31T03:28:17;28.08;;;11.82;;
40198;SDS011;25906;43.536;26.068;2023-01-31T03:31:18;28.67;;;11.77;;
40198;SDS011;25906;43.536;26.068;2023-01-31T03:34:08;26.30;;;11.45;;
40198;SDS011;25906;43.536;26.068;2023-01-31T03:46:08;23.05;;;10.20;;
40198;SDS011;25906;43.536;26.068;2023-01-31T03:49:00;29.88;;;12.98;;
40198;SDS011;25906;43.536;26.068;2023-01-31T03:51:53;26.58;;;11.45;;
40198;SDS011;25906;43.536;26.068;2023-01-31T03:54:45;23.77;;;11.10;;
40198;SDS011;25906;43.536;26.068;2023-01-31T03:57:35;28.27;;;11.98;;
40198;SDS011;25906;43.536;26.068;2023-01-31T04:00:24;39.40;;;13.30;;
40198;SDS011;25906;43.536;26.068;2023-01-31T04:03:13;23.05;;;10.98;;
40198;SDS011;25906;43.536;26.068;2023-01-31T04:06:05;24.25;;;11.75;;
40198;SDS011;25906;43.536;26.068;2023-01-31T04:08:50;27.55;;;11.23;;
40198;SDS011;25906;43.536;26.068;2023-01-31T04:11:40;22.35;;;10.55;;
40198;SDS011;25906;43.536;26.068;2023-01-31T04:14:26;24.52;;;11.02;;
40198;SDS011;25906;43.536;26.068;2023-01-31T04:17:12;26.10;;;10.73;;
40198;SDS011;25906;43.536;26.068;2023-01-31T04:19:58;23.50;;;10.57;;
40198;SDS011;25906;43.536;26.068;2023-01-31T04:22:44;28.20;;;10.70;;
40198;SDS011;25906;43.536;26.068;2023-01-31T04:25:29;23.20;;;11.15;;
40198;SDS011;25906;43.536;26.068;2023-01-31T04:28:15;20.45;;;9.27;;
40198;SDS011;25906;43.536;26.068;2023-01-31T04:31:00;25.00;;;10.45;;
40198;SDS011;25906;43.536;26.068;2023-01-31T04:33:46;21.20;;;9.88;;
40198;SDS011;25906;43.536;26.068;2023-01-31T04:39:17;24.02;;;10.40;;
40198;SDS011;25906;43.536;26.068;2023-01-31T04:42:02;22.35;;;10.05;;
40198;SDS011;25906;43.536;26.068;2023-01-31T04:44:48;24.65;;;10.48;;
40198;SDS011;25906;43.536;26.068;2023-01-31T04:47:33;22.80;;;10.60;;
40198;SDS011;25906;43.536;26.068;2023-01-31T04:50:19;23.92;;;10.20;;
40198;SDS011;25906;43.536;26.068;2023-01-31T04:53:04;19.98;;;9.38;;
40198;SDS011;25906;43.536;26.068;2023-01-31T04:55:53;21.02;;;9.65;;
40198;SDS011;25906;43.536;26.068;2023-01-31T04:58:39;22.95;;;10.88;;
40198;SDS011;25906;43.536;26.068;2023-01-31T05:01:25;21.67;;;9.88;;
40198;SDS011;25906;43.536;26.068;2023-01-31T05:04:11;22.58;;;10.18;;
40198;SDS011;25906;43.536;26.068;2023-01-31T05:06:56;22.58;;;9.98;;
40198;SDS011;25906;43.536;26.068;2023-01-31T05:09:42;21.38;;;9.57;;
40198;SDS011;25906;43.536;26.068;2023-01-31T05:12:28;21.20;;;10.57;;
40198;SDS011;25906;43.536;26.068;2023-01-31T05:15:14;24.20;;;11.45;;
40198;SDS011;25906;43.536;26.068;2023-01-31T05:18:00;23.67;;;10.75;;
40198;SDS011;25906;43.536;26.068;2023-01-31T05:20:48;25.90;;;11.65;;
40198;SDS011;25906;43.536;26.068;2023-01-31T05:23:34;24.60;;;10.77;;
40198;SDS011;25906;43.536;26.068;2023-01-31T05:26:20;27.05;;;9.90;;
40198;SDS011;25906;43.536;26.068;2023-01-31T05:29:05;27.63;;;11.90;;
40198;SDS011;25906;43.536;26.068;2023-01-31T05:31:52;24.00;;;10.45;;
40198;SDS011;25906;43.536;26.068;2023-01-31T05:34:38;28.20;;;12.43;;
40198;SDS011;25906;43.536;26.068;2023-01-31T05:37:24;26.00;;;11.45;;
40198;SDS011;25906;43.536;26.068;2023-01-31T05:40:10;23.55;;;10.60;;
40198;SDS011;25906;43.536;26.068;2023-01-31T05:43:00;25.67;;;10.48;;
40198;SDS011;25906;43.536;26.068;2023-01-31T05:45:49;26.02;;;11.20;;
40198;SDS011;25906;43.536;26.068;2023-01-31T05:48:34;25.73;;;10.32;;
40198;SDS011;25906;43.536;26.068;2023-01-31T05:51:20;26.17;;;11.95;;
40198;SDS011;25906;43.536;26.068;2023-01-31T05:54:05;24.05;;;10.23;;
40198;SDS011;25906;43.536;26.068;2023-01-31T05:56:52;26.70;;;11.75;;
40198;SDS011;25906;43.536;26.068;2023-01-31T05:59:37;25.92;;;10.77;;
40198;SDS011;25906;43.536;26.068;2023-01-31T06:02:23;23.67;;;10.82;;
40198;SDS011;25906;43.536;26.068;2023-01-31T06:05:08;24.13;;;10.90;;
40198;SDS011;25906;43.536;26.068;2023-01-31T06:07:54;23.45;;;10.32;;
40198;SDS011;25906;43.536;26.068;2023-01-31T06:10:40;23.40;;;10.60;;
40198;SDS011;25906;43.536;26.068;2023-01-31T06:13:25;28.13;;;11.73;;
40198;SDS011;25906;43.536;26.068;2023-01-31T06:16:11;27.33;;;11.00;;
40198;SDS011;25906;43.536;26.068;2023-01-31T06:18:56;23.23;;;10.38;;
40198;SDS011;25906;43.536;26.068;2023-01-31T06:21:42;25.38;;;11.38;;
40198;SDS011;25906;43.536;26.068;2023-01-31T06:24:27;28.13;;;12.02;;
40198;SDS011;25906;43.536;26.068;2023-01-31T06:27:13;25.05;;;11.40;;
40198;SDS011;25906;43.536;26.068;2023-01-31T06:29:58;27.88;;;12.43;;
40198;SDS011;25906;43.536;26.068;2023-01-31T06:35:29;29.40;;;11.50;;
40198;SDS011;25906;43.536;26.068;2023-01-31T06:38:15;24.80;;;12.00;;
40198;SDS011;25906;43.536;26.068;2023-01-31T06:41:00;26.48;;;11.40;;
40198;SDS011;25906;43.536;26.068;2023-01-31T06:43:45;31.23;;;11.98;;
40198;SDS011;25906;43.536;26.068;2023-01-31T06:46:31;27.55;;;12.32;;
40198;SDS011;25906;43.536;26.068;2023-01-31T06:49:17;28.40;;;13.02;;
40198;SDS011;25906;43.536;26.068;2023-01-31T06:52:02;29.10;;;12.48;;
40198;SDS011;25906;43.536;26.068;2023-01-31T06:54:48;31.55;;;12.82;;
40198;SDS011;25906;43.536;26.068;2023-01-31T06:57:34;27.73;;;12.35;;
40198;SDS011;25906;43.536;26.068;2023-01-31T07:00:19;30.67;;;13.57;;
40198;SDS011;25906;43.536;26.068;2023-01-31T07:03:06;37.80;;;14.82;;
40198;SDS011;25906;43.536;26.068;2023-01-31T07:05:51;59.40;;;21.55;;
40198;SDS011;25906;43.536;26.068;2023-01-31T07:08:37;35.55;;;15.05;;
40198;SDS011;25906;43.536;26.068;2023-01-31T07:14:08;59.17;;;20.67;;
40198;SDS011;25906;43.536;26.068;2023-01-31T07:16:53;45.38;;;18.58;;
40198;SDS011;25906;43.536;26.068;2023-01-31T07:22:24;33.28;;;14.68;;
40198;SDS011;25906;43.536;26.068;2023-01-31T07:25:10;28.42;;;14.02;;
40198;SDS011;25906;43.536;26.068;2023-01-31T07:27:55;33.50;;;15.50;;
40198;SDS011;25906;43.536;26.068;2023-01-31T07:30:41;27.55;;;13.88;;
40198;SDS011;25906;43.536;26.068;2023-01-31T07:33:28;32.17;;;14.63;;
40198;SDS011;25906;43.536;26.068;2023-01-31T07:36:14;32.67;;;14.38;;
40198;SDS011;25906;43.536;26.068;2023-01-31T07:39:03;29.13;;;13.18;;
40198;SDS011;25906;43.536;26.068;2023-01-31T07:41:50;26.77;;;12.60;;
40198;SDS011;25906;43.536;26.068;2023-01-31T07:44:36;27.95;;;13.27;;
40198;SDS011;25906;43.536;26.068;2023-01-31T07:47:21;31.70;;;13.80;;
40198;SDS011;25906;43.536;26.068;2023-01-31T07:50:07;29.17;;;12.60;;
40198;SDS011;25906;43.536;26.068;2023-01-31T07:52:53;29.67;;;12.32;;
40198;SDS011;25906;43.536;26.068;2023-01-31T07:55:40;30.92;;;13.38;;
40198;SDS011;25906;43.536;26.068;2023-01-31T07:58:26;27.83;;;13.70;;
40198;SDS011;25906;43.536;26.068;2023-01-31T08:01:13;32.60;;;13.32;;
40198;SDS011;25906;43.536;26.068;2023-01-31T08:04:19;29.77;;;12.40;;
40198;SDS011;25906;43.536;26.068;2023-01-31T08:07:04;33.95;;;13.80;;
40198;SDS011;25906;43.536;26.068;2023-01-31T08:09:51;29.33;;;12.98;;
40198;SDS011;25906;43.536;26.068;2023-01-31T08:12:36;27.08;;;12.50;;
40198;SDS011;25906;43.536;26.068;2023-01-31T08:15:21;30.50;;;13.02;;
40198;SDS011;25906;43.536;26.068;2023-01-31T08:18:07;31.75;;;14.25;;
40198;SDS011;25906;43.536;26.068;2023-01-31T08:20:53;29.25;;;13.70;;
40198;SDS011;25906;43.536;26.068;2023-01-31T08:23:38;28.00;;;13.40;;
40198;SDS011;25906;43.536;26.068;2023-01-31T08:26:25;30.30;;;12.77;;
40198;SDS011;25906;43.536;26.068;2023-01-31T08:29:10;33.75;;;13.00;;
40198;SDS011;25906;43.536;26.068;2023-01-31T08:34:42;30.50;;;12.63;;
40198;SDS011;25906;43.536;26.068;2023-01-31T08:37:27;28.58;;;13.40;;
40198;SDS011;25906;43.536;26.068;2023-01-31T08:40:13;27.83;;;13.02;;
40198;SDS011;25906;43.536;26.068;2023-01-31T08:42:59;31.27;;;13.52;;
40198;SDS011;25906;43.536;26.068;2023-01-31T08:45:45;31.60;;;14.18;;
40198;SDS011;25906;43.536;26.068;2023-01-31T08:48:31;34.45;;;14.10;;
40198;SDS011;25906;43.536;26.068;2023-01-31T08:51:18;28.38;;;13.15;;
40198;SDS011;25906;43.536;26.068;2023-01-31T08:54:03;29.17;;;13.98;;
40198;SDS011;25906;43.536;26.068;2023-01-31T08:56:49;30.63;;;15.02;;
40198;SDS011;25906;43.536;26.068;2023-01-31T08:59:34;29.38;;;12.80;;
40198;SDS011;25906;43.536;26.068;2023-01-31T09:02:20;30.27;;;13.85;;
40198;SDS011;25906;43.536;26.068;2023-01-31T09:05:05;27.63;;;13.50;;
40198;SDS011;25906;43.536;26.068;2023-01-31T09:07:54;25.77;;;12.63;;
40198;SDS011;25906;43.536;26.068;2023-01-31T09:10:40;30.42;;;13.02;;
40198;SDS011;25906;43.536;26.068;2023-01-31T09:13:25;29.30;;;13.55;;
40198;SDS011;25906;43.536;26.068;2023-01-31T09:16:12;29.95;;;12.70;;
40198;SDS011;25906;43.536;26.068;2023-01-31T09:18:58;31.63;;;13.48;;
40198;SDS011;25906;43.536;26.068;2023-01-31T09:21:43;31.80;;;13.18;;
40198;SDS011;25906;43.536;26.068;2023-01-31T09:24:29;35.35;;;15.32;;
40198;SDS011;25906;43.536;26.068;2023-01-31T09:27:15;29.50;;;13.85;;
40198;SDS011;25906;43.536;26.068;2023-01-31T09:30:01;35.78;;;14.20;;
40198;SDS011;25906;43.536;26.068;2023-01-31T09:32:47;30.70;;;13.95;;
40198;SDS011;25906;43.536;26.068;2023-01-31T09:35:35;32.50;;;13.90;;
40198;SDS011;25906;43.536;26.068;2023-01-31T09:38:21;28.27;;;13.75;;
40198;SDS011;25906;43.536;26.068;2023-01-31T09:41:14;30.38;;;13.77;;
40198;SDS011;25906;43.536;26.068;2023-01-31T09:44:17;32.50;;;14.15;;
40198;SDS011;25906;43.536;26.068;2023-01-31T09:47:12;31.75;;;13.77;;
40198;SDS011;25906;43.536;26.068;2023-01-31T09:49:59;28.27;;;13.02;;
40198;SDS011;25906;43.536;26.068;2023-01-31T09:52:50;28.55;;;13.50;;
40198;SDS011;25906;43.536;26.068;2023-01-31T10:01:24;27.00;;;12.98;;
40198;SDS011;25906;43.536;26.068;2023-01-31T10:07:19;28.08;;;12.73;;
40198;SDS011;25906;43.536;26.068;2023-01-31T10:13:18;28.33;;;13.45;;
40198;SDS011;25906;43.536;26.068;2023-01-31T10:19:18;29.85;;;13.27;;
40198;SDS011;25906;43.536;26.068;2023-01-31T10:22:11;29.63;;;14.05;;
40198;SDS011;25906;43.536;26.068;2023-01-31T10:25:17;30.50;;;13.85;;
40198;SDS011;25906;43.536;26.068;2023-01-31T10:28:13;26.50;;;12.68;;
40198;SDS011;25906;43.536;26.068;2023-01-31T10:31:09;32.28;;;14.20;;
40198;SDS011;25906;43.536;26.068;2023-01-31T10:34:21;28.20;;;13.65;;
40198;SDS011;25906;43.536;26.068;2023-01-31T10:37:11;28.65;;;13.50;;
40198;SDS011;25906;43.536;26.068;2023-01-31T10:40:04;38.65;;;17.08;;
40198;SDS011;25906;43.536;26.068;2023-01-31T10:42:59;25.58;;;12.77;;
40198;SDS011;25906;43.536;26.068;2023-01-31T10:45:55;28.77;;;13.07;;
40198;SDS011;25906;43.536;26.068;2023-01-31T10:48:44;27.98;;;12.43;;
40198;SDS011;25906;43.536;26.068;2023-01-31T10:51:35;21.60;;;11.32;;
40198;SDS011;25906;43.536;26.068;2023-01-31T10:57:57;29.95;;;12.30;;
40198;SDS011;25906;43.536;26.068;2023-01-31T11:03:31;28.83;;;12.75;;
40198;SDS011;25906;43.536;26.068;2023-01-31T11:06:16;29.52;;;12.88;;
40198;SDS011;25906;43.536;26.068;2023-01-31T11:09:02;29.23;;;11.70;;
40198;SDS011;25906;43.536;26.068;2023-01-31T11:11:52;25.95;;;12.30;;
40198;SDS011;25906;43.536;26.068;2023-01-31T11:14:39;24.38;;;12.20;;
40198;SDS011;25906;43.536;26.068;2023-01-31T11:17:24;23.25;;;12.32;;
40198;SDS011;25906;43.536;26.068;2023-01-31T11:23:09;23.70;;;11.27;;
40198;SDS011;25906;43.536;26.068;2023-01-31T11:25:58;25.17;;;12.48;;
40198;SDS011;25906;43.536;26.068;2023-01-31T11:28:44;25.80;;;12.60;;
40198;SDS011;25906;43.536;26.068;2023-01-31T11:31:39;25.60;;;12.35;;
40198;SDS011;25906;43.536;26.068;2023-01-31T11:34:28;28.15;;;13.02;;
40198;SDS011;25906;43.536;26.068;2023-01-31T11:37:16;27.10;;;12.88;;
40198;SDS011;25906;43.536;26.068;2023-01-31T11:40:18;25.95;;;13.25;;
40198;SDS011;25906;43.536;26.068;2023-01-31T11:45:59;26.75;;;13.48;;
40198;SDS011;25906;43.536;26.068;2023-01-31T11:48:47;26.27;;;13.60;;
40198;SDS011;25906;43.536;26.068;2023-01-31T11:51:32;31.83;;;13.10;;
40198;SDS011;25906;43.536;26.068;2023-01-31T11:54:20;26.20;;;13.27;;
40198;SDS011;25906;43.536;26.068;2023-01-31T11:57:15;24.75;;;11.50;;
40198;SDS011;25906;43.536;26.068;2023-01-31T12:00:22;27.58;;;12.68;;
40198;SDS011;25906;43.536;26.068;2023-01-31T12:03:14;25.25;;;12.60;;
40198;SDS011;25906;43.536;26.068;2023-01-31T12:06:03;25.13;;;12.30;;
40198;SDS011;25906;43.536;26.068;2023-01-31T12:08:53;22.75;;;11.20;;
40198;SDS011;25906;43.536;26.068;2023-01-31T12:11:40;30.00;;;12.38;;
40198;SDS011;25906;43.536;26.068;2023-01-31T12:14:41;28.15;;;13.18;;
40198;SDS011;25906;43.536;26.068;2023-01-31T12:17:33;26.00;;;12.15;;
40198;SDS011;25906;43.536;26.068;2023-01-31T12:26:51;24.58;;;11.73;;
40198;SDS011;25906;43.536;26.068;2023-01-31T12:32:44;19.27;;;10.18;;
40198;SDS011;25906;43.536;26.068;2023-01-31T12:41:42;19.73;;;10.30;;
40198;SDS011;25906;43.536;26.068;2023-01-31T13:00:41;20.13;;;10.23;;
40198;SDS011;25906;43.536;26.068;2023-01-31T13:03:37;21.90;;;11.15;;
40198;SDS011;25906;43.536;26.068;2023-01-31T13:06:47;20.92;;;11.02;;
40198;SDS011;25906;43.536;26.068;2023-01-31T13:09:38;27.00;;;11.88;;
40198;SDS011;25906;43.536;26.068;2023-01-31T13:15:18;19.48;;;10.65;;
40198;SDS011;25906;43.536;26.068;2023-01-31T13:18:12;19.88;;;9.75;;
40198;SDS011;25906;43.536;26.068;2023-01-31T13:21:06;24.20;;;11.15;;
40198;SDS011;25906;43.536;26.068;2023-01-31T13:23:57;18.38;;;9.57;;
40198;SDS011;25906;43.536;26.068;2023-01-31T13:26:47;20.70;;;10.55;;
40198;SDS011;25906;43.536;26.068;2023-01-31T13:29:40;17.38;;;9.45;;
40198;SDS011;25906;43.536;26.068;2023-01-31T13:32:41;18.10;;;9.65;;
40198;SDS011;25906;43.536;26.068;2023-01-31T13:35:34;20.15;;;10.40;;
40198;SDS011;25906;43.536;26.068;2023-01-31T13:38:25;21.85;;;9.65;;
40198;SDS011;25906;43.536;26.068;2023-01-31T13:41:24;15.48;;;8.77;;
40198;SDS011;25906;43.536;26.068;2023-01-31T13:44:12;20.45;;;9.20;;
40198;SDS011;25906;43.536;26.068;2023-01-31T13:47:03;18.92;;;8.68;;
40198;SDS011;25906;43.536;26.068;2023-01-31T13:49:59;18.13;;;9.80;;
40198;SDS011;25906;43.536;26.068;2023-01-31T13:52:48;21.95;;;10.13;;
40198;SDS011;25906;43.536;26.068;2023-01-31T13:55:39;19.05;;;9.98;;
40198;SDS011;25906;43.536;26.068;2023-01-31T13:58:28;18.75;;;9.75;;
40198;SDS011;25906;43.536;26.068;2023-01-31T14:02:02;18.75;;;9.70;;
40198;SDS011;25906;43.536;26.068;2023-01-31T14:04:33;21.13;;;11.38;;
40198;SDS011;25906;43.536;26.068;2023-01-31T14:07:20;24.17;;;11.70;;
40198;SDS011;25906;43.536;26.068;2023-01-31T14:24:58;27.17;;;11.85;;
40198;SDS011;25906;43.536;26.068;2023-01-31T14:27:45;25.67;;;12.32;;
40198;SDS011;25906;43.536;26.068;2023-01-31T14:30:46;21.08;;;11.18;;
40198;SDS011;25906;43.536;26.068;2023-01-31T14:33:32;21.40;;;10.32;;
40198;SDS011;25906;43.536;26.068;2023-01-31T14:45:24;23.55;;;12.13;;
40198;SDS011;25906;43.536;26.068;2023-01-31T14:48:21;19.90;;;11.13;;
40198;SDS011;25906;43.536;26.068;2023-01-31T14:51:24;22.23;;;11.05;;
40198;SDS011;25906;43.536;26.068;2023-01-31T15:06:08;22.98;;;11.20;;
40198;SDS011;25906;43.536;26.068;2023-01-31T15:12:02;20.55;;;11.10;;
40198;SDS011;25906;43.536;26.068;2023-01-31T15:14:50;21.20;;;11.18;;
40198;SDS011;25906;43.536;26.068;2023-01-31T15:17:36;20.67;;;10.80;;
40198;SDS011;25906;43.536;26.068;2023-01-31T15:20:27;19.30;;;10.60;;
40198;SDS011;25906;43.536;26.068;2023-01-31T15:23:27;24.33;;;10.73;;
40198;SDS011;25906;43.536;26.068;2023-01-31T15:26:15;22.42;;;11.30;;
40198;SDS011;25906;43.536;26.068;2023-01-31T15:29:03;22.77;;;11.80;;
40198;SDS011;25906;43.536;26.068;2023-01-31T15:31:52;22.83;;;10.68;;
40198;SDS011;25906;43.536;26.068;2023-01-31T15:34:45;21.92;;;10.90;;
40198;SDS011;25906;43.536;26.068;2023-01-31T15:37:37;21.48;;;11.07;;
40198;SDS011;25906;43.536;26.068;2023-01-31T15:40:24;20.58;;;11.20;;
40198;SDS011;25906;43.536;26.068;2023-01-31T15:43:17;20.30;;;10.70;;
40198;SDS011;25906;43.536;26.068;2023-01-31T15:52:18;18.17;;;9.70;;
40198;SDS011;25906;43.536;26.068;2023-01-31T15:55:05;20.92;;;10.32;;
40198;SDS011;25906;43.536;26.068;2023-01-31T15:57:54;23.73;;;10.70;;
40198;SDS011;25906;43.536;26.068;2023-01-31T16:00:42;21.52;;;10.68;;
40198;SDS011;25906;43.536;26.068;2023-01-31T16:03:29;22.33;;;11.50;;
40198;SDS011;25906;43.536;26.068;2023-01-31T16:06:25;19.25;;;10.25;;
40198;SDS011;25906;43.536;26.068;2023-01-31T16:09:24;20.95;;;10.00;;
40198;SDS011;25906;43.536;26.068;2023-01-31T16:12:13;22.02;;;11.75;;
40198;SDS011;25906;43.536;26.068;2023-01-31T16:15:02;20.25;;;10.40;;
40198;SDS011;25906;43.536;26.068;2023-01-31T16:17:50;22.67;;;10.57;;
40198;SDS011;25906;43.536;26.068;2023-01-31T16:20:43;22.27;;;10.13;;
40198;SDS011;25906;43.536;26.068;2023-01-31T16:23:32;22.60;;;10.68;;
40198;SDS011;25906;43.536;26.068;2023-01-31T16:26:23;18.75;;;10.65;;
40198;SDS011;25906;43.536;26.068;2023-01-31T16:29:15;21.73;;;10.88;;
40198;SDS011;25906;43.536;26.068;2023-01-31T16:32:03;22.08;;;10.10;;
40198;SDS011;25906;43.536;26.068;2023-01-31T16:35:07;24.00;;;12.80;;
40198;SDS011;25906;43.536;26.068;2023-01-31T16:38:14;33.10;;;16.65;;
40198;SDS011;25906;43.536;26.068;2023-01-31T16:41:02;37.13;;;19.17;;
40198;SDS011;25906;43.536;26.068;2023-01-31T16:43:52;35.85;;;17.27;;
40198;SDS011;25906;43.536;26.068;2023-01-31T16:46:39;31.42;;;17.25;;
40198;SDS011;25906;43.536;26.068;2023-01-31T16:49:35;30.92;;;17.17;;
40198;SDS011;25906;43.536;26.068;2023-01-31T16:52:25;40.85;;;19.60;;
40198;SDS011;25906;43.536;26.068;2023-01-31T16:55:14;38.80;;;18.10;;
40198;SDS011;25906;43.536;26.068;2023-01-31T16:58:11;38.67;;;20.42;;
40198;SDS011;25906;43.536;26.068;2023-01-31T17:01:18;31.92;;;17.50;;
40198;SDS011;25906;43.536;26.068;2023-01-31T17:04:14;30.73;;;16.95;;
40198;SDS011;25906;43.536;26.068;2023-01-31T17:07:04;34.90;;;17.38;;
40198;SDS011;25906;43.536;26.068;2023-01-31T17:09:53;41.20;;;22.48;;
40198;SDS011;25906;43.536;26.068;2023-01-31T17:12:40;34.53;;;18.63;;
40198;SDS011;25906;43.536;26.068;2023-01-31T17:15:27;33.67;;;17.13;;
40198;SDS011;25906;43.536;26.068;2023-01-31T17:18:13;43.03;;;20.90;;
40198;SDS011;25906;43.536;26.068;2023-01-31T17:20:58;34.55;;;18.02;;
40198;SDS011;25906;43.536;26.068;2023-01-31T17:23:44;40.13;;;19.52;;
40198;SDS011;25906;43.536;26.068;2023-01-31T17:26:30;39.17;;;19.27;;
40198;SDS011;25906;43.536;26.068;2023-01-31T17:29:15;37.75;;;19.58;;
40198;SDS011;25906;43.536;26.068;2023-01-31T17:32:01;37.03;;;19.65;;
40198;SDS011;25906;43.536;26.068;2023-01-31T17:37:35;36.13;;;19.50;;
40198;SDS011;25906;43.536;26.068;2023-01-31T17:40:20;38.60;;;21.50;;
40198;SDS011;25906;43.536;26.068;2023-01-31T17:43:09;49.00;;;25.55;;
40198;SDS011;25906;43.536;26.068;2023-01-31T17:46:02;40.28;;;20.40;;
40198;SDS011;25906;43.536;26.068;2023-01-31T17:48:47;57.25;;;26.77;;
40198;SDS011;25906;43.536;26.068;2023-01-31T17:51:33;52.10;;;25.52;;
40198;SDS011;25906;43.536;26.068;2023-01-31T17:54:18;35.00;;;18.45;;
40198;SDS011;25906;43.536;26.068;2023-01-31T17:57:04;40.63;;;19.33;;
40198;SDS011;25906;43.536;26.068;2023-01-31T17:59:49;42.17;;;20.35;;
40198;SDS011;25906;43.536;26.068;2023-01-31T18:02:36;43.53;;;22.83;;
40198;SDS011;25906;43.536;26.068;2023-01-31T18:05:25;51.40;;;28.20;;
40198;SDS011;25906;43.536;26.068;2023-01-31T18:08:11;50.70;;;28.77;;
40198;SDS011;25906;43.536;26.068;2023-01-31T18:13:53;61.10;;;25.98;;
40198;SDS011;25906;43.536;26.068;2023-01-31T18:16:40;59.45;;;25.75;;
40198;SDS011;25906;43.536;26.068;2023-01-31T18:19:26;75.80;;;29.17;;
40198;SDS011;25906;43.536;26.068;2023-01-31T18:22:12;74.47;;;30.15;;
40198;SDS011;25906;43.536;26.068;2023-01-31T18:24:58;59.15;;;26.75;;
40198;SDS011;25906;43.536;26.068;2023-01-31T18:27:43;53.58;;;24.98;;
40198;SDS011;25906;43.536;26.068;2023-01-31T18:30:29;59.65;;;27.83;;
40198;SDS011;25906;43.536;26.068;2023-01-31T18:33:14;50.45;;;24.70;;
40198;SDS011;25906;43.536;26.068;2023-01-31T18:36:00;44.10;;;23.02;;
40198;SDS011;25906;43.536;26.068;2023-01-31T18:38:45;40.90;;;20.65;;
40198;SDS011;25906;43.536;26.068;2023-01-31T18:41:32;38.67;;;20.92;;
40198;SDS011;25906;43.536;26.068;2023-01-31T18:44:17;41.35;;;22.75;;
40198;SDS011;25906;43.536;26.068;2023-01-31T18:47:03;40.78;;;20.88;;
40198;SDS011;25906;43.536;26.068;2023-01-31T18:49:49;38.22;;;20.98;;
40198;SDS011;25906;43.536;26.068;2023-01-31T18:52:34;39.50;;;21.85;;
40198;SDS011;25906;43.536;26.068;2023-01-31T18:55:20;39.58;;;22.40;;
40198;SDS011;25906;43.536;26.068;2023-01-31T18:58:05;42.58;;;21.98;;
40198;SDS011;25906;43.536;26.068;2023-01-31T19:00:51;43.28;;;22.85;;
40198;SDS011;25906;43.536;26.068;2023-01-31T19:03:36;36.95;;;19.02;;
40198;SDS011;25906;43.536;26.068;2023-01-31T19:06:24;52.38;;;29.27;;
40198;SDS011;25906;43.536;26.068;2023-01-31T19:09:13;48.17;;;26.58;;
40198;SDS011;25906;43.536;26.068;2023-01-31T19:11:59;42.40;;;22.48;;